sensor_id;sensor_type;location;lat;lon;timestamp;temperature;humidity
23815;DHT22;12088;53.078;8.720;2023-07-31T00:01:09;15.70;99.90
23815;DHT22;12088;53.078;8.720;2023-07-31T00:03:34;15.70;99.90
23815;DHT22;12088;53.078;8.720;2023-07-31T00:06:00;15.80;99.90
23815;DHT22;12088;53.078;8.720;2023-07-31T00:08:25;15.70;99.90
23815;DHT22;12088;53.078;8.720;2023-07-31T00:10:52;15.80;99.90
23815;DHT22;12088;53.078;8.720;2023-07-31T00:13:18;15.80;99.90
23815;DHT22;12088;53.078;8.720;2023-07-31T00:15:43;15.80;99.90
23815;DHT22;12088;53.078;8.720;2023-07-31T00:18:09;15.80;99.90
23815;DHT22;12088;53.078;8.720;2023-07-31T00:20:34;15.70;99.90
23815;DHT22;12088;53.078;8.720;2023-07-31T00:23:00;15.70;99.90
23815;DHT22;12088;53.078;8.720;2023-07-31T00:25:25;15.70;99.90
23815;DHT22;12088;53.078;8.720;2023-07-31T00:27:51;15.70;99.90
23815;DHT22;12088;53.078;8.720;2023-07-31T00:30:16;15.70;99.90
23815;DHT22;12088;53.078;8.720;2023-07-31T00:32:42;15.70;99.90
23815;DHT22;12088;53.078;8.720;2023-07-31T00:35:08;15.60;99.90
23815;DHT22;12088;53.078;8.720;2023-07-31T00:37:33;15.60;99.90
23815;DHT22;12088;53.078;8.720;2023-07-31T00:39:58;15.60;99.90
23815;DHT22;12088;53.078;8.720;2023-07-31T00:42:24;15.70;99.90
23815;DHT22;12088;53.078;8.720;2023-07-31T00:44:50;15.70;99.90
23815;DHT22;12088;53.078;8.720;2023-07-31T00:47:15;15.60;99.90
23815;DHT22;12088;53.078;8.720;2023-07-31T00:49:41;15.60;99.90
23815;DHT22;12088;53.078;8.720;2023-07-31T00:52:09;15.50;99.90
23815;DHT22;12088;53.078;8.720;2023-07-31T00:54:35;15.50;99.90
23815;DHT22;12088;53.078;8.720;2023-07-31T00:57:01;15.60;99.90
23815;DHT22;12088;53.078;8.720;2023-07-31T00:59:26;15.50;99.90
23815;DHT22;12088;53.078;8.720;2023-07-31T01:01:52;15.50;99.90
23815;DHT22;12088;53.078;8.720;2023-07-31T01:04:18;15.50;99.90
23815;DHT22;12088;53.078;8.720;2023-07-31T01:06:48;15.60;99.90
23815;DHT22;12088;53.078;8.720;2023-07-31T01:11:57;15.60;99.90
23815;DHT22;12088;53.078;8.720;2023-07-31T01:14:25;15.60;99.90
23815;DHT22;12088;53.078;8.720;2023-07-31T01:16:51;15.60;99.90
23815;DHT22;12088;53.078;8.720;2023-07-31T01:19:19;15.60;99.90
23815;DHT22;12088;53.078;8.720;2023-07-31T01:22:16;15.60;99.90
23815;DHT22;12088;53.078;8.720;2023-07-31T01:25:04;15.60;99.90
23815;DHT22;12088;53.078;8.720;2023-07-31T01:27:42;15.60;99.90
23815;DHT22;12088;53.078;8.720;2023-07-31T01:30:19;15.70;99.90
23815;DHT22;12088;53.078;8.720;2023-07-31T01:32:48;15.70;99.90
23815;DHT22;12088;53.078;8.720;2023-07-31T01:35:14;15.70;99.90
23815;DHT22;12088;53.078;8.720;2023-07-31T01:37:40;15.70;99.90
23815;DHT22;12088;53.078;8.720;2023-07-31T01:40:06;15.60;99.90
23815;DHT22;12088;53.078;8.720;2023-07-31T01:42:32;15.60;99.90
23815;DHT22;12088;53.078;8.720;2023-07-31T01:44:57;15.60;99.90
23815;DHT22;12088;53.078;8.720;2023-07-31T01:47:23;15.50;99.90
23815;DHT22;12088;53.078;8.720;2023-07-31T01:49:49;15.50;99.90
23815;DHT22;12088;53.078;8.720;2023-07-31T01:52:14;15.50;99.90
23815;DHT22;12088;53.078;8.720;2023-07-31T01:54:40;15.40;99.90
23815;DHT22;12088;53.078;8.720;2023-07-31T01:57:05;15.40;99.90
23815;DHT22;12088;53.078;8.720;2023-07-31T01:59:31;15.40;99.90
23815;DHT22;12088;53.078;8.720;2023-07-31T02:01:57;15.30;99.90
23815;DHT22;12088;53.078;8.720;2023-07-31T02:04:22;15.20;99.90
23815;DHT22;12088;53.078;8.720;2023-07-31T02:06:48;15.30;99.90
23815;DHT22;12088;53.078;8.720;2023-07-31T02:09:13;15.30;99.90
23815;DHT22;12088;53.078;8.720;2023-07-31T02:11:39;15.20;99.90
23815;DHT22;12088;53.078;8.720;2023-07-31T02:14:04;15.20;99.90
23815;DHT22;12088;53.078;8.720;2023-07-31T02:16:29;15.20;99.90
23815;DHT22;12088;53.078;8.720;2023-07-31T02:18:55;15.20;99.90
23815;DHT22;12088;53.078;8.720;2023-07-31T02:21:21;15.10;99.90
23815;DHT22;12088;53.078;8.720;2023-07-31T02:23:46;15.10;99.90
23815;DHT22;12088;53.078;8.720;2023-07-31T02:26:12;15.10;99.90
23815;DHT22;12088;53.078;8.720;2023-07-31T02:28:37;15.10;99.90
23815;DHT22;12088;53.078;8.720;2023-07-31T02:31:03;15.10;99.90
23815;DHT22;12088;53.078;8.720;2023-07-31T02:33:28;15.10;99.90
23815;DHT22;12088;53.078;8.720;2023-07-31T02:35:54;15.10;99.90
23815;DHT22;12088;53.078;8.720;2023-07-31T02:38:19;15.10;99.90
23815;DHT22;12088;53.078;8.720;2023-07-31T02:40:45;15.00;99.90
23815;DHT22;12088;53.078;8.720;2023-07-31T02:43:10;15.00;99.90
23815;DHT22;12088;53.078;8.720;2023-07-31T02:45:36;15.10;99.90
23815;DHT22;12088;53.078;8.720;2023-07-31T02:48:01;15.10;99.90
23815;DHT22;12088;53.078;8.720;2023-07-31T02:50:27;15.10;99.90
23815;DHT22;12088;53.078;8.720;2023-07-31T02:52:55;15.10;99.90
23815;DHT22;12088;53.078;8.720;2023-07-31T02:55:21;15.10;99.90
23815;DHT22;12088;53.078;8.720;2023-07-31T02:57:46;15.10;99.90
23815;DHT22;12088;53.078;8.720;2023-07-31T03:00:12;15.10;99.90
23815;DHT22;12088;53.078;8.720;2023-07-31T03:02:38;15.10;99.90
23815;DHT22;12088;53.078;8.720;2023-07-31T03:05:04;15.10;99.90
23815;DHT22;12088;53.078;8.720;2023-07-31T03:07:29;15.10;99.90
23815;DHT22;12088;53.078;8.720;2023-07-31T03:09:56;15.10;99.90
23815;DHT22;12088;53.078;8.720;2023-07-31T03:12:22;15.10;99.90
23815;DHT22;12088;53.078;8.720;2023-07-31T03:14:47;15.10;99.90
23815;DHT22;12088;53.078;8.720;2023-07-31T03:17:13;15.10;99.90
23815;DHT22;12088;53.078;8.720;2023-07-31T03:19:38;15.20;99.90
23815;DHT22;12088;53.078;8.720;2023-07-31T03:22:04;15.20;99.90
23815;DHT22;12088;53.078;8.720;2023-07-31T03:24:29;15.10;99.90
23815;DHT22;12088;53.078;8.720;2023-07-31T03:26:55;15.20;99.90
23815;DHT22;12088;53.078;8.720;2023-07-31T03:29:21;15.20;99.90
23815;DHT22;12088;53.078;8.720;2023-07-31T03:31:46;15.20;99.90
23815;DHT22;12088;53.078;8.720;2023-07-31T03:34:12;15.20;99.90
23815;DHT22;12088;53.078;8.720;2023-07-31T03:36:37;15.20;99.90
23815;DHT22;12088;53.078;8.720;2023-07-31T03:39:03;15.30;99.90
23815;DHT22;12088;53.078;8.720;2023-07-31T03:41:28;15.30;99.90
23815;DHT22;12088;53.078;8.720;2023-07-31T03:43:54;15.30;99.90
23815;DHT22;12088;53.078;8.720;2023-07-31T03:46:23;15.20;99.90
23815;DHT22;12088;53.078;8.720;2023-07-31T03:48:49;15.20;99.90
23815;DHT22;12088;53.078;8.720;2023-07-31T03:51:15;15.20;99.90
23815;DHT22;12088;53.078;8.720;2023-07-31T03:53:40;15.20;99.90
23815;DHT22;12088;53.078;8.720;2023-07-31T03:56:06;15.20;99.90
23815;DHT22;12088;53.078;8.720;2023-07-31T03:58:31;15.20;99.90
23815;DHT22;12088;53.078;8.720;2023-07-31T04:00:57;15.20;99.90
23815;DHT22;12088;53.078;8.720;2023-07-31T04:03:23;15.20;99.90
23815;DHT22;12088;53.078;8.720;2023-07-31T04:05:48;15.30;99.90
23815;DHT22;12088;53.078;8.720;2023-07-31T04:08:14;15.30;99.90
23815;DHT22;12088;53.078;8.720;2023-07-31T04:10:39;15.30;99.90
23815;DHT22;12088;53.078;8.720;2023-07-31T04:13:04;15.30;99.90
23815;DHT22;12088;53.078;8.720;2023-07-31T04:15:30;15.30;99.90
23815;DHT22;12088;53.078;8.720;2023-07-31T04:17:55;15.30;99.90
23815;DHT22;12088;53.078;8.720;2023-07-31T04:20:21;15.30;99.90
23815;DHT22;12088;53.078;8.720;2023-07-31T04:22:46;15.30;99.90
23815;DHT22;12088;53.078;8.720;2023-07-31T04:25:12;15.30;99.90
23815;DHT22;12088;53.078;8.720;2023-07-31T04:27:38;15.40;99.90
23815;DHT22;12088;53.078;8.720;2023-07-31T04:30:04;15.40;99.90
23815;DHT22;12088;53.078;8.720;2023-07-31T04:32:30;15.40;99.90
23815;DHT22;12088;53.078;8.720;2023-07-31T04:34:55;15.40;99.90
23815;DHT22;12088;53.078;8.720;2023-07-31T04:37:21;15.40;99.90
23815;DHT22;12088;53.078;8.720;2023-07-31T04:39:47;15.40;99.90
23815;DHT22;12088;53.078;8.720;2023-07-31T04:42:13;15.40;99.90
23815;DHT22;12088;53.078;8.720;2023-07-31T04:44:38;15.30;99.90
23815;DHT22;12088;53.078;8.720;2023-07-31T04:47:04;15.40;99.90
23815;DHT22;12088;53.078;8.720;2023-07-31T04:49:29;15.30;99.90
23815;DHT22;12088;53.078;8.720;2023-07-31T04:51:55;15.40;99.90
23815;DHT22;12088;53.078;8.720;2023-07-31T04:54:20;15.40;99.90
23815;DHT22;12088;53.078;8.720;2023-07-31T04:56:46;15.50;99.90
23815;DHT22;12088;53.078;8.720;2023-07-31T04:59:12;15.50;99.90
23815;DHT22;12088;53.078;8.720;2023-07-31T05:01:38;15.50;99.90
23815;DHT22;12088;53.078;8.720;2023-07-31T05:04:03;15.60;99.90
23815;DHT22;12088;53.078;8.720;2023-07-31T05:06:29;15.70;99.90
23815;DHT22;12088;53.078;8.720;2023-07-31T05:08:54;15.60;99.90
23815;DHT22;12088;53.078;8.720;2023-07-31T05:11:20;15.60;99.90
23815;DHT22;12088;53.078;8.720;2023-07-31T05:13:45;15.60;99.90
23815;DHT22;12088;53.078;8.720;2023-07-31T05:16:11;15.60;99.90
23815;DHT22;12088;53.078;8.720;2023-07-31T05:18:36;15.60;99.90
23815;DHT22;12088;53.078;8.720;2023-07-31T05:21:02;15.60;99.90
23815;DHT22;12088;53.078;8.720;2023-07-31T05:23:27;15.50;99.90
23815;DHT22;12088;53.078;8.720;2023-07-31T05:25:53;15.50;99.90
23815;DHT22;12088;53.078;8.720;2023-07-31T05:28:18;15.50;99.90
23815;DHT22;12088;53.078;8.720;2023-07-31T05:30:44;15.60;99.90
23815;DHT22;12088;53.078;8.720;2023-07-31T05:33:09;15.60;99.90
23815;DHT22;12088;53.078;8.720;2023-07-31T05:35:35;15.60;99.90
23815;DHT22;12088;53.078;8.720;2023-07-31T05:38:00;15.70;99.90
23815;DHT22;12088;53.078;8.720;2023-07-31T05:40:26;15.70;99.90
23815;DHT22;12088;53.078;8.720;2023-07-31T05:42:52;15.80;99.90
23815;DHT22;12088;53.078;8.720;2023-07-31T05:45:17;15.90;99.90
23815;DHT22;12088;53.078;8.720;2023-07-31T05:47:43;15.90;99.90
23815;DHT22;12088;53.078;8.720;2023-07-31T05:50:09;16.00;99.90
23815;DHT22;12088;53.078;8.720;2023-07-31T05:52:34;15.90;99.90
23815;DHT22;12088;53.078;8.720;2023-07-31T05:55:00;15.90;99.90
23815;DHT22;12088;53.078;8.720;2023-07-31T05:57:25;16.00;99.90
23815;DHT22;12088;53.078;8.720;2023-07-31T05:59:51;15.90;99.90
23815;DHT22;12088;53.078;8.720;2023-07-31T06:02:18;15.90;99.90
23815;DHT22;12088;53.078;8.720;2023-07-31T06:04:43;15.90;99.90
23815;DHT22;12088;53.078;8.720;2023-07-31T06:07:09;15.80;99.90
23815;DHT22;12088;53.078;8.720;2023-07-31T06:09:36;15.80;99.90
23815;DHT22;12088;53.078;8.720;2023-07-31T06:12:02;15.90;99.90
23815;DHT22;12088;53.078;8.720;2023-07-31T06:14:27;15.90;99.90
23815;DHT22;12088;53.078;8.720;2023-07-31T06:16:53;15.90;99.90
23815;DHT22;12088;53.078;8.720;2023-07-31T06:19:18;15.90;99.90
23815;DHT22;12088;53.078;8.720;2023-07-31T06:21:45;15.90;99.90
23815;DHT22;12088;53.078;8.720;2023-07-31T06:24:11;15.90;99.90
23815;DHT22;12088;53.078;8.720;2023-07-31T06:26:37;15.90;99.90
23815;DHT22;12088;53.078;8.720;2023-07-31T06:29:03;16.00;99.90
23815;DHT22;12088;53.078;8.720;2023-07-31T06:31:28;16.00;99.90
23815;DHT22;12088;53.078;8.720;2023-07-31T06:33:54;16.10;99.90
23815;DHT22;12088;53.078;8.720;2023-07-31T06:36:19;16.00;99.90
23815;DHT22;12088;53.078;8.720;2023-07-31T06:38:45;16.10;99.90
23815;DHT22;12088;53.078;8.720;2023-07-31T06:41:10;16.10;99.90
23815;DHT22;12088;53.078;8.720;2023-07-31T06:43:36;16.10;99.90
23815;DHT22;12088;53.078;8.720;2023-07-31T06:46:08;16.10;99.90
23815;DHT22;12088;53.078;8.720;2023-07-31T06:48:35;16.10;99.90
23815;DHT22;12088;53.078;8.720;2023-07-31T06:51:02;16.10;99.90
23815;DHT22;12088;53.078;8.720;2023-07-31T06:53:28;16.10;99.90
23815;DHT22;12088;53.078;8.720;2023-07-31T06:55:53;16.20;99.90
23815;DHT22;12088;53.078;8.720;2023-07-31T06:58:20;16.20;99.90
23815;DHT22;12088;53.078;8.720;2023-07-31T07:00:45;16.20;99.90
23815;DHT22;12088;53.078;8.720;2023-07-31T07:03:11;16.30;99.90
23815;DHT22;12088;53.078;8.720;2023-07-31T07:05:36;16.30;99.90
23815;DHT22;12088;53.078;8.720;2023-07-31T07:08:02;16.30;99.90
23815;DHT22;12088;53.078;8.720;2023-07-31T07:10:27;16.40;99.90
23815;DHT22;12088;53.078;8.720;2023-07-31T07:12:53;16.30;99.90
23815;DHT22;12088;53.078;8.720;2023-07-31T07:15:20;16.30;99.90
23815;DHT22;12088;53.078;8.720;2023-07-31T07:17:46;16.40;99.90
23815;DHT22;12088;53.078;8.720;2023-07-31T07:20:12;16.40;99.90
23815;DHT22;12088;53.078;8.720;2023-07-31T07:22:37;16.40;99.90
23815;DHT22;12088;53.078;8.720;2023-07-31T07:25:04;16.60;99.90
23815;DHT22;12088;53.078;8.720;2023-07-31T07:27:30;16.60;99.90
23815;DHT22;12088;53.078;8.720;2023-07-31T07:29:55;16.60;99.90
23815;DHT22;12088;53.078;8.720;2023-07-31T07:32:21;16.50;99.90
23815;DHT22;12088;53.078;8.720;2023-07-31T07:34:47;16.50;99.90
23815;DHT22;12088;53.078;8.720;2023-07-31T07:37:13;16.40;99.90
23815;DHT22;12088;53.078;8.720;2023-07-31T07:39:39;16.40;99.90
23815;DHT22;12088;53.078;8.720;2023-07-31T07:42:04;16.50;99.90
23815;DHT22;12088;53.078;8.720;2023-07-31T07:44:30;16.50;99.90
23815;DHT22;12088;53.078;8.720;2023-07-31T07:46:55;16.60;99.90
23815;DHT22;12088;53.078;8.720;2023-07-31T07:49:21;16.70;99.90
23815;DHT22;12088;53.078;8.720;2023-07-31T07:51:48;16.60;99.90
23815;DHT22;12088;53.078;8.720;2023-07-31T07:54:14;16.60;99.90
23815;DHT22;12088;53.078;8.720;2023-07-31T07:56:39;16.60;99.90
23815;DHT22;12088;53.078;8.720;2023-07-31T07:59:05;16.60;99.90
23815;DHT22;12088;53.078;8.720;2023-07-31T08:01:30;16.60;99.90
23815;DHT22;12088;53.078;8.720;2023-07-31T08:03:57;16.60;99.90
23815;DHT22;12088;53.078;8.720;2023-07-31T08:06:23;16.70;99.90
23815;DHT22;12088;53.078;8.720;2023-07-31T08:08:49;16.80;99.90
23815;DHT22;12088;53.078;8.720;2023-07-31T08:11:15;16.80;99.90
23815;DHT22;12088;53.078;8.720;2023-07-31T08:13:40;16.90;99.90
23815;DHT22;12088;53.078;8.720;2023-07-31T08:16:06;16.90;99.90
23815;DHT22;12088;53.078;8.720;2023-07-31T08:18:31;16.90;99.90
23815;DHT22;12088;53.078;8.720;2023-07-31T08:20:58;16.80;99.90
23815;DHT22;12088;53.078;8.720;2023-07-31T08:23:23;16.90;99.90
23815;DHT22;12088;53.078;8.720;2023-07-31T08:25:49;16.90;99.90
23815;DHT22;12088;53.078;8.720;2023-07-31T08:28:16;16.80;99.90
23815;DHT22;12088;53.078;8.720;2023-07-31T08:30:42;16.80;99.90
23815;DHT22;12088;53.078;8.720;2023-07-31T08:33:08;16.80;99.90
23815;DHT22;12088;53.078;8.720;2023-07-31T08:35:33;16.80;99.90
23815;DHT22;12088;53.078;8.720;2023-07-31T08:37:59;16.90;99.90
23815;DHT22;12088;53.078;8.720;2023-07-31T08:40:25;16.90;99.90
23815;DHT22;12088;53.078;8.720;2023-07-31T08:42:56;16.80;99.90
23815;DHT22;12088;53.078;8.720;2023-07-31T08:45:24;16.90;99.90
23815;DHT22;12088;53.078;8.720;2023-07-31T08:47:52;16.90;99.90
23815;DHT22;12088;53.078;8.720;2023-07-31T08:50:19;16.80;99.90
23815;DHT22;12088;53.078;8.720;2023-07-31T08:52:49;16.90;99.90
23815;DHT22;12088;53.078;8.720;2023-07-31T08:55:16;16.90;99.90
23815;DHT22;12088;53.078;8.720;2023-07-31T08:57:42;17.00;99.90
23815;DHT22;12088;53.078;8.720;2023-07-31T09:00:09;17.00;99.90
23815;DHT22;12088;53.078;8.720;2023-07-31T09:05:11;17.10;99.90
23815;DHT22;12088;53.078;8.720;2023-07-31T09:07:37;17.20;99.90
23815;DHT22;12088;53.078;8.720;2023-07-31T09:10:04;17.30;99.90
23815;DHT22;12088;53.078;8.720;2023-07-31T09:12:30;17.10;99.90
23815;DHT22;12088;53.078;8.720;2023-07-31T09:14:57;17.10;99.90
23815;DHT22;12088;53.078;8.720;2023-07-31T09:17:30;17.10;99.90
23815;DHT22;12088;53.078;8.720;2023-07-31T09:19:56;17.10;99.90
23815;DHT22;12088;53.078;8.720;2023-07-31T09:22:32;17.10;99.90
23815;DHT22;12088;53.078;8.720;2023-07-31T09:25:23;16.90;99.90
23815;DHT22;12088;53.078;8.720;2023-07-31T09:27:55;17.00;99.90
23815;DHT22;12088;53.078;8.720;2023-07-31T09:30:21;16.90;99.90
23815;DHT22;12088;53.078;8.720;2023-07-31T09:32:48;16.90;99.90
23815;DHT22;12088;53.078;8.720;2023-07-31T09:35:16;17.00;99.90
23815;DHT22;12088;53.078;8.720;2023-07-31T09:37:43;17.00;99.90
23815;DHT22;12088;53.078;8.720;2023-07-31T09:40:09;17.10;99.90
23815;DHT22;12088;53.078;8.720;2023-07-31T09:42:49;17.30;99.90
23815;DHT22;12088;53.078;8.720;2023-07-31T09:45:15;17.30;99.90
23815;DHT22;12088;53.078;8.720;2023-07-31T09:47:46;17.30;99.90
23815;DHT22;12088;53.078;8.720;2023-07-31T09:50:14;17.40;99.90
23815;DHT22;12088;53.078;8.720;2023-07-31T09:52:40;17.30;99.90
23815;DHT22;12088;53.078;8.720;2023-07-31T09:55:06;17.40;99.90
23815;DHT22;12088;53.078;8.720;2023-07-31T09:57:33;17.50;99.90
23815;DHT22;12088;53.078;8.720;2023-07-31T09:59:59;17.40;99.90
23815;DHT22;12088;53.078;8.720;2023-07-31T10:02:26;17.50;99.90
23815;DHT22;12088;53.078;8.720;2023-07-31T10:04:54;17.50;99.90
23815;DHT22;12088;53.078;8.720;2023-07-31T10:07:23;17.60;99.90
23815;DHT22;12088;53.078;8.720;2023-07-31T10:09:51;17.70;99.90
23815;DHT22;12088;53.078;8.720;2023-07-31T10:12:19;17.80;99.90
23815;DHT22;12088;53.078;8.720;2023-07-31T10:14:46;17.90;99.90
23815;DHT22;12088;53.078;8.720;2023-07-31T10:17:13;17.80;99.90
23815;DHT22;12088;53.078;8.720;2023-07-31T10:19:40;17.90;99.90
23815;DHT22;12088;53.078;8.720;2023-07-31T10:22:06;18.00;99.90
23815;DHT22;12088;53.078;8.720;2023-07-31T10:24:33;17.90;99.90
23815;DHT22;12088;53.078;8.720;2023-07-31T10:27:01;18.00;99.90
23815;DHT22;12088;53.078;8.720;2023-07-31T10:29:28;17.90;99.90
23815;DHT22;12088;53.078;8.720;2023-07-31T10:31:56;18.00;99.90
23815;DHT22;12088;53.078;8.720;2023-07-31T10:34:22;18.10;99.90
23815;DHT22;12088;53.078;8.720;2023-07-31T10:36:48;18.00;99.90
23815;DHT22;12088;53.078;8.720;2023-07-31T10:39:34;18.00;99.90
23815;DHT22;12088;53.078;8.720;2023-07-31T10:42:10;17.90;99.90
23815;DHT22;12088;53.078;8.720;2023-07-31T10:44:36;17.90;99.90
23815;DHT22;12088;53.078;8.720;2023-07-31T10:47:01;17.80;99.90
23815;DHT22;12088;53.078;8.720;2023-07-31T10:49:29;17.80;99.90
23815;DHT22;12088;53.078;8.720;2023-07-31T10:51:57;17.70;99.90
23815;DHT22;12088;53.078;8.720;2023-07-31T10:54:22;17.80;99.90
23815;DHT22;12088;53.078;8.720;2023-07-31T10:56:50;17.80;99.90
23815;DHT22;12088;53.078;8.720;2023-07-31T10:59:16;17.90;99.90
23815;DHT22;12088;53.078;8.720;2023-07-31T11:01:56;18.10;99.90
23815;DHT22;12088;53.078;8.720;2023-07-31T11:04:28;18.10;99.90
23815;DHT22;12088;53.078;8.720;2023-07-31T11:06:59;18.20;99.90
23815;DHT22;12088;53.078;8.720;2023-07-31T11:09:30;18.20;99.90
23815;DHT22;12088;53.078;8.720;2023-07-31T11:11:57;18.30;99.90
23815;DHT22;12088;53.078;8.720;2023-07-31T11:14:23;18.30;99.90
23815;DHT22;12088;53.078;8.720;2023-07-31T11:16:52;18.30;99.90
23815;DHT22;12088;53.078;8.720;2023-07-31T11:19:24;18.30;99.90
23815;DHT22;12088;53.078;8.720;2023-07-31T11:21:54;18.40;99.90
23815;DHT22;12088;53.078;8.720;2023-07-31T11:24:20;18.50;99.90
23815;DHT22;12088;53.078;8.720;2023-07-31T11:26:50;18.40;99.90
23815;DHT22;12088;53.078;8.720;2023-07-31T11:29:16;18.30;99.90
23815;DHT22;12088;53.078;8.720;2023-07-31T11:31:43;18.30;99.90
23815;DHT22;12088;53.078;8.720;2023-07-31T11:34:09;18.40;99.90
23815;DHT22;12088;53.078;8.720;2023-07-31T11:36:34;18.30;99.90
23815;DHT22;12088;53.078;8.720;2023-07-31T11:39:08;18.30;99.90
23815;DHT22;12088;53.078;8.720;2023-07-31T11:41:34;18.20;99.90
23815;DHT22;12088;53.078;8.720;2023-07-31T11:44:00;18.30;99.90
23815;DHT22;12088;53.078;8.720;2023-07-31T11:46:26;18.40;99.90
23815;DHT22;12088;53.078;8.720;2023-07-31T11:48:52;18.50;99.90
23815;DHT22;12088;53.078;8.720;2023-07-31T11:51:24;18.40;99.90
23815;DHT22;12088;53.078;8.720;2023-07-31T11:53:56;18.70;99.90
23815;DHT22;12088;53.078;8.720;2023-07-31T11:56:23;18.80;99.90
23815;DHT22;12088;53.078;8.720;2023-07-31T11:58:53;18.70;99.90
23815;DHT22;12088;53.078;8.720;2023-07-31T12:01:21;18.70;99.90
23815;DHT22;12088;53.078;8.720;2023-07-31T12:03:47;18.70;99.90
23815;DHT22;12088;53.078;8.720;2023-07-31T12:06:13;18.70;99.90
23815;DHT22;12088;53.078;8.720;2023-07-31T12:08:39;18.80;99.90
23815;DHT22;12088;53.078;8.720;2023-07-31T12:11:06;18.70;99.90
23815;DHT22;12088;53.078;8.720;2023-07-31T12:13:32;18.70;99.90
23815;DHT22;12088;53.078;8.720;2023-07-31T12:16:00;18.80;99.90
23815;DHT22;12088;53.078;8.720;2023-07-31T12:18:29;18.80;99.90
23815;DHT22;12088;53.078;8.720;2023-07-31T12:20:56;18.70;99.90
23815;DHT22;12088;53.078;8.720;2023-07-31T12:23:27;18.80;99.90
23815;DHT22;12088;53.078;8.720;2023-07-31T12:28:29;18.60;99.90
23815;DHT22;12088;53.078;8.720;2023-07-31T12:31:00;18.70;99.90
23815;DHT22;12088;53.078;8.720;2023-07-31T12:33:31;18.90;99.90
23815;DHT22;12088;53.078;8.720;2023-07-31T12:36:00;18.80;99.90
23815;DHT22;12088;53.078;8.720;2023-07-31T12:38:25;18.70;99.90
23815;DHT22;12088;53.078;8.720;2023-07-31T12:40:51;18.70;99.90
23815;DHT22;12088;53.078;8.720;2023-07-31T12:43:16;18.70;99.90
23815;DHT22;12088;53.078;8.720;2023-07-31T12:45:42;18.60;99.90
23815;DHT22;12088;53.078;8.720;2023-07-31T12:48:07;18.70;99.90
23815;DHT22;12088;53.078;8.720;2023-07-31T12:50:33;18.80;99.90
23815;DHT22;12088;53.078;8.720;2023-07-31T12:52:58;19.00;99.90
23815;DHT22;12088;53.078;8.720;2023-07-31T12:55:24;18.90;99.90
23815;DHT22;12088;53.078;8.720;2023-07-31T12:57:50;19.00;99.90
23815;DHT22;12088;53.078;8.720;2023-07-31T13:00:16;19.00;99.90
23815;DHT22;12088;53.078;8.720;2023-07-31T13:02:41;19.00;99.90
23815;DHT22;12088;53.078;8.720;2023-07-31T13:05:07;19.00;99.90
23815;DHT22;12088;53.078;8.720;2023-07-31T13:07:33;19.10;99.90
23815;DHT22;12088;53.078;8.720;2023-07-31T13:09:59;19.10;99.90
23815;DHT22;12088;53.078;8.720;2023-07-31T13:12:24;19.00;99.90
23815;DHT22;12088;53.078;8.720;2023-07-31T13:14:51;18.90;99.90
23815;DHT22;12088;53.078;8.720;2023-07-31T13:17:17;18.90;99.90
23815;DHT22;12088;53.078;8.720;2023-07-31T13:19:43;18.70;99.90
23815;DHT22;12088;53.078;8.720;2023-07-31T13:22:08;18.80;99.90
23815;DHT22;12088;53.078;8.720;2023-07-31T13:24:34;18.90;99.90
23815;DHT22;12088;53.078;8.720;2023-07-31T13:26:59;18.90;99.90
23815;DHT22;12088;53.078;8.720;2023-07-31T13:29:25;19.10;99.90
23815;DHT22;12088;53.078;8.720;2023-07-31T13:31:51;19.10;99.90
23815;DHT22;12088;53.078;8.720;2023-07-31T13:34:17;19.10;99.90
23815;DHT22;12088;53.078;8.720;2023-07-31T13:36:42;19.10;99.90
23815;DHT22;12088;53.078;8.720;2023-07-31T13:39:08;19.00;99.90
23815;DHT22;12088;53.078;8.720;2023-07-31T13:41:34;18.90;99.90
23815;DHT22;12088;53.078;8.720;2023-07-31T13:43:59;18.90;99.90
23815;DHT22;12088;53.078;8.720;2023-07-31T13:46:25;18.70;99.90
23815;DHT22;12088;53.078;8.720;2023-07-31T13:48:51;18.70;99.90
23815;DHT22;12088;53.078;8.720;2023-07-31T13:51:16;18.60;99.90
23815;DHT22;12088;53.078;8.720;2023-07-31T13:53:42;18.60;99.90
23815;DHT22;12088;53.078;8.720;2023-07-31T13:56:07;18.60;99.90
23815;DHT22;12088;53.078;8.720;2023-07-31T13:58:33;18.60;99.90
23815;DHT22;12088;53.078;8.720;2023-07-31T14:00:59;18.60;99.90
23815;DHT22;12088;53.078;8.720;2023-07-31T14:03:24;18.60;99.90
23815;DHT22;12088;53.078;8.720;2023-07-31T14:05:51;18.60;99.90
23815;DHT22;12088;53.078;8.720;2023-07-31T14:08:17;18.70;99.90
23815;DHT22;12088;53.078;8.720;2023-07-31T14:10:42;18.60;99.90
23815;DHT22;12088;53.078;8.720;2023-07-31T14:13:08;18.60;99.90
23815;DHT22;12088;53.078;8.720;2023-07-31T14:15:33;18.50;99.90
23815;DHT22;12088;53.078;8.720;2023-07-31T14:18:01;18.50;99.90
23815;DHT22;12088;53.078;8.720;2023-07-31T14:20:26;18.40;99.90
23815;DHT22;12088;53.078;8.720;2023-07-31T14:22:52;18.40;99.90
23815;DHT22;12088;53.078;8.720;2023-07-31T14:25:17;18.50;99.90
23815;DHT22;12088;53.078;8.720;2023-07-31T14:27:43;18.50;99.90
23815;DHT22;12088;53.078;8.720;2023-07-31T14:30:09;18.60;99.90
23815;DHT22;12088;53.078;8.720;2023-07-31T14:32:34;18.60;99.90
23815;DHT22;12088;53.078;8.720;2023-07-31T14:35:02;18.60;99.90
23815;DHT22;12088;53.078;8.720;2023-07-31T14:37:43;18.70;99.90
23815;DHT22;12088;53.078;8.720;2023-07-31T14:40:10;18.60;99.90
23815;DHT22;12088;53.078;8.720;2023-07-31T14:42:36;18.70;99.90
23815;DHT22;12088;53.078;8.720;2023-07-31T14:45:03;18.70;99.90
23815;DHT22;12088;53.078;8.720;2023-07-31T14:47:28;18.60;99.90
23815;DHT22;12088;53.078;8.720;2023-07-31T14:49:56;18.60;99.90
23815;DHT22;12088;53.078;8.720;2023-07-31T14:52:22;18.60;99.90
23815;DHT22;12088;53.078;8.720;2023-07-31T14:54:47;18.50;99.90
23815;DHT22;12088;53.078;8.720;2023-07-31T14:57:13;18.50;99.90
23815;DHT22;12088;53.078;8.720;2023-07-31T14:59:38;18.50;99.90
23815;DHT22;12088;53.078;8.720;2023-07-31T15:02:04;18.50;99.90
23815;DHT22;12088;53.078;8.720;2023-07-31T15:04:30;18.50;99.90
23815;DHT22;12088;53.078;8.720;2023-07-31T15:06:55;18.50;99.90
23815;DHT22;12088;53.078;8.720;2023-07-31T15:09:21;18.50;99.90
23815;DHT22;12088;53.078;8.720;2023-07-31T15:11:47;18.40;99.90
23815;DHT22;12088;53.078;8.720;2023-07-31T15:14:13;18.40;99.90
23815;DHT22;12088;53.078;8.720;2023-07-31T15:16:38;18.40;99.90
23815;DHT22;12088;53.078;8.720;2023-07-31T15:19:04;18.40;99.90
23815;DHT22;12088;53.078;8.720;2023-07-31T15:21:29;18.30;99.90
23815;DHT22;12088;53.078;8.720;2023-07-31T15:23:55;18.20;99.90
23815;DHT22;12088;53.078;8.720;2023-07-31T15:26:20;18.20;99.90
23815;DHT22;12088;53.078;8.720;2023-07-31T15:29:05;18.20;99.90
23815;DHT22;12088;53.078;8.720;2023-07-31T15:31:34;18.10;99.90
23815;DHT22;12088;53.078;8.720;2023-07-31T15:34:00;18.10;99.90